createdAt,value
2017-08-26T00:01:36.919Z,2.87
2017-08-26T00:04:05.173Z,6.03
2017-08-26T00:06:34.786Z,2.50
2017-08-26T00:09:04.540Z,3.00
2017-08-26T00:11:33.130Z,2.73
2017-08-26T00:14:07.404Z,10.17
2017-08-26T00:16:36.752Z,3.07
2017-08-26T00:19:05.484Z,5.30
2017-08-26T00:21:34.027Z,3.20
2017-08-26T00:24:03.201Z,5.10
2017-08-26T00:26:33.446Z,3.70
2017-08-26T00:29:02.258Z,3.10
2017-08-26T00:31:31.376Z,4.80
2017-08-26T00:34:02.104Z,4.40
2017-08-26T00:36:32.656Z,6.03
2017-08-26T00:39:02.176Z,4.43
2017-08-26T00:41:32.156Z,3.90
2017-08-26T00:44:01.030Z,3.10
2017-08-26T00:46:29.089Z,4.17
2017-08-26T00:49:03.149Z,2.83
2017-08-26T00:51:32.244Z,4.50
2017-08-26T00:54:00.846Z,2.80
2017-08-26T00:56:29.588Z,3.00
2017-08-26T00:58:57.544Z,2.97
2017-08-26T01:01:25.874Z,3.37
2017-08-26T01:03:59.353Z,3.50
2017-08-26T01:06:28.124Z,4.00
2017-08-26T01:09:00.650Z,5.13
2017-08-26T01:11:30.220Z,4.37
2017-08-26T01:13:59.748Z,3.60
2017-08-26T01:16:29.545Z,6.00
2017-08-26T01:18:59.046Z,4.17
2017-08-26T01:21:28.753Z,7.73
2017-08-26T01:23:58.293Z,7.13
2017-08-26T01:26:26.920Z,4.30
2017-08-26T01:28:56.044Z,3.30
2017-08-26T01:31:26.068Z,5.83
2017-08-26T01:33:56.723Z,4.93
2017-08-26T01:36:25.137Z,3.60
2017-08-26T01:38:54.247Z,4.07
2017-08-26T01:41:22.029Z,4.60
2017-08-26T01:43:50.753Z,3.33
2017-08-26T01:46:21.181Z,3.77
2017-08-26T01:48:49.176Z,3.30
2017-08-26T01:51:19.145Z,3.30
2017-08-26T01:53:47.073Z,6.43
2017-08-26T01:56:17.912Z,5.03
2017-08-26T01:58:46.513Z,6.47
2017-08-26T02:01:15.269Z,5.93
2017-08-26T02:03:44.089Z,3.50
2017-08-26T02:06:14.577Z,3.60
2017-08-26T02:08:42.879Z,5.20
2017-08-26T02:11:13.112Z,5.80
2017-08-26T02:13:42.506Z,4.63
2017-08-26T02:16:11.048Z,7.47
2017-08-26T02:18:41.281Z,3.37
2017-08-26T02:21:11.068Z,8.53
2017-08-26T02:23:41.317Z,7.80
2017-08-26T02:26:10.241Z,9.13
2017-08-26T02:28:38.216Z,3.83
2017-08-26T02:31:08.575Z,3.43
2017-08-26T02:33:38.268Z,4.90
2017-08-26T02:36:07.299Z,5.57
2017-08-26T02:38:37.369Z,3.73
2017-08-26T02:41:07.503Z,4.83
2017-08-26T02:43:35.771Z,4.43
2017-08-26T02:46:06.479Z,3.60
2017-08-26T02:48:35.501Z,3.47
2017-08-26T02:51:04.180Z,2.83
2017-08-26T02:53:35.355Z,3.13
2017-08-26T02:56:06.073Z,4.10
2017-08-26T02:58:35.445Z,3.00
2017-08-26T03:01:04.020Z,5.00
2017-08-26T03:03:31.954Z,3.33
2017-08-26T03:06:03.679Z,2.77
2017-08-26T03:08:32.057Z,4.73
2017-08-26T03:11:01.786Z,3.23
2017-08-26T03:13:30.869Z,4.63
2017-08-26T03:15:59.764Z,2.90
2017-08-26T03:18:33.078Z,2.90
2017-08-26T03:21:02.197Z,2.80
2017-08-26T03:23:31.560Z,2.90
2017-08-26T03:26:02.372Z,3.40
2017-08-26T03:28:33.147Z,5.20
2017-08-26T03:31:01.021Z,2.90
2017-08-26T03:33:32.283Z,3.00
2017-08-26T03:36:00.591Z,5.17
2017-08-26T03:38:30.125Z,4.33
2017-08-26T03:43:34.989Z,3.30
2017-08-26T03:46:04.232Z,3.67
2017-08-26T03:48:34.848Z,4.87
2017-08-26T03:51:03.029Z,4.13
2017-08-26T03:53:33.566Z,3.33
2017-08-26T03:56:02.933Z,3.57
2017-08-26T03:58:31.261Z,2.83
2017-08-26T04:01:01.672Z,3.00
2017-08-26T04:03:31.369Z,13.03
2017-08-26T04:06:00.405Z,3.20
2017-08-26T04:08:30.532Z,3.50
2017-08-26T04:11:00.185Z,4.50
2017-08-26T04:13:30.310Z,3.53
2017-08-26T04:16:00.270Z,3.10
2017-08-26T04:18:29.236Z,4.60
2017-08-26T04:20:57.994Z,20.53
2017-08-26T04:23:26.969Z,3.40
2017-08-26T04:25:56.649Z,2.90
2017-08-26T04:28:27.871Z,3.70
2017-08-26T04:31:00.760Z,3.00
2017-08-26T04:33:29.696Z,3.73
2017-08-26T04:35:59.177Z,6.80
2017-08-26T04:38:29.003Z,3.93
2017-08-26T04:40:59.149Z,3.77
2017-08-26T04:43:28.087Z,3.60
2017-08-26T04:45:57.296Z,4.37
2017-08-26T04:48:26.085Z,3.87
2017-08-26T04:50:56.019Z,2.77
2017-08-26T04:53:26.483Z,2.70
2017-08-26T04:55:55.668Z,2.60
2017-08-26T04:58:24.721Z,2.77
2017-08-26T05:00:55.825Z,3.10
2017-08-26T05:03:26.458Z,3.10
2017-08-26T05:05:56.133Z,3.00
2017-08-26T05:08:25.449Z,6.73
2017-08-26T05:10:53.842Z,2.90
2017-08-26T05:13:22.138Z,8.87
2017-08-26T05:15:50.114Z,2.60
2017-08-26T05:18:18.761Z,2.20
2017-08-26T05:20:47.846Z,4.27
2017-08-26T05:23:18.386Z,2.43
2017-08-26T05:25:48.332Z,2.50
2017-08-26T05:28:16.655Z,3.60
2017-08-26T05:30:47.081Z,5.40
2017-08-26T05:33:16.722Z,3.27
2017-08-26T05:35:49.734Z,5.27
2017-08-26T05:38:18.091Z,3.40
2017-08-26T05:40:47.769Z,7.23
2017-08-26T05:43:17.842Z,3.10
2017-08-26T05:45:47.156Z,3.93
2017-08-26T05:48:16.303Z,11.67
2017-08-26T05:50:46.226Z,6.13
2017-08-26T05:53:14.777Z,5.57
2017-08-26T05:55:45.433Z,7.03
2017-08-26T05:58:14.211Z,5.20
2017-08-26T06:00:44.278Z,5.73
2017-08-26T06:03:15.857Z,5.17
2017-08-26T06:05:44.545Z,6.30
2017-08-26T06:08:14.796Z,8.00
2017-08-26T06:10:43.725Z,6.57
2017-08-26T06:13:11.519Z,7.40
2017-08-26T06:15:40.120Z,7.30
2017-08-26T06:18:13.756Z,5.50
2017-08-26T06:20:48.716Z,9.17
2017-08-26T06:23:17.317Z,8.43
2017-08-26T06:25:48.174Z,6.60
2017-08-26T06:28:19.899Z,7.40
2017-08-26T06:30:47.829Z,6.50
2017-08-26T06:33:17.823Z,6.77
2017-08-26T06:35:46.325Z,6.53
2017-08-26T06:38:15.378Z,7.73
2017-08-26T06:40:45.573Z,7.30
2017-08-26T06:43:14.774Z,8.57
2017-08-26T06:45:45.224Z,8.87
2017-08-26T06:48:13.588Z,6.80
2017-08-26T06:50:44.703Z,7.83
2017-08-26T06:53:17.642Z,8.53
2017-08-26T06:55:48.149Z,11.33
2017-08-26T06:58:17.747Z,8.80
2017-08-26T07:00:45.788Z,8.50
2017-08-26T07:03:15.345Z,9.53
2017-08-26T07:05:45.237Z,12.10
2017-08-26T07:08:15.714Z,8.73
2017-08-26T07:10:43.979Z,10.80
2017-08-26T07:13:12.600Z,8.57
2017-08-26T07:15:41.466Z,7.80
2017-08-26T07:18:11.191Z,9.90
2017-08-26T07:20:39.774Z,10.80
2017-08-26T07:23:09.699Z,12.67
2017-08-26T07:25:38.017Z,12.30
2017-08-26T07:28:06.577Z,9.50
2017-08-26T07:30:36.363Z,9.80
2017-08-26T07:33:04.837Z,7.80
2017-08-26T07:35:33.564Z,12.10
2017-08-26T07:38:02.163Z,9.43
2017-08-26T07:40:31.385Z,11.70
2017-08-26T07:42:59.239Z,9.07
2017-08-26T07:45:28.153Z,9.27
2017-08-26T07:47:57.705Z,9.57
2017-08-26T07:50:28.876Z,9.67
2017-08-26T07:52:58.705Z,10.10
2017-08-26T07:55:26.965Z,8.60
2017-08-26T07:57:54.755Z,8.73
2017-08-26T08:00:22.593Z,9.53
2017-08-26T08:02:51.669Z,8.93
2017-08-26T08:05:19.466Z,9.60
2017-08-26T08:07:48.284Z,8.87
2017-08-26T08:10:16.166Z,10.53
2017-08-26T08:12:44.451Z,7.87
2017-08-26T08:15:13.661Z,7.00
2017-08-26T08:17:41.962Z,8.00
2017-08-26T08:20:12.094Z,6.70
2017-08-26T08:22:43.288Z,6.77
2017-08-26T08:25:11.358Z,10.00
2017-08-26T08:27:41.950Z,6.97
2017-08-26T08:30:11.829Z,7.33
2017-08-26T08:32:42.221Z,5.20
2017-08-26T08:35:12.685Z,6.27
2017-08-26T08:37:42.022Z,10.70
2017-08-26T08:40:10.481Z,5.23
2017-08-26T08:42:39.012Z,6.40
2017-08-26T08:45:09.284Z,6.13
2017-08-26T08:47:39.029Z,7.07
2017-08-26T08:50:10.109Z,7.63
2017-08-26T08:52:39.999Z,5.20
2017-08-26T08:55:08.037Z,5.53
2017-08-26T08:57:37.254Z,8.73
2017-08-26T09:00:08.252Z,6.60
2017-08-26T09:02:38.014Z,6.80
2017-08-26T09:05:06.275Z,6.03
2017-08-26T09:07:34.679Z,5.20
2017-08-26T09:10:04.009Z,6.73
2017-08-26T09:12:32.195Z,5.73
2017-08-26T09:15:02.131Z,5.87
2017-08-26T09:17:30.153Z,5.47
2017-08-26T09:20:00.162Z,5.10
2017-08-26T09:22:29.105Z,5.50
2017-08-26T09:24:59.800Z,5.20
2017-08-26T09:27:30.764Z,4.87
2017-08-26T09:30:01.080Z,4.80
2017-08-26T09:32:31.228Z,5.70
2017-08-26T09:35:01.065Z,11.87
2017-08-26T09:37:29.889Z,7.60
2017-08-26T09:39:59.817Z,4.63
2017-08-26T09:42:28.673Z,4.40
2017-08-26T09:44:57.238Z,4.50
2017-08-26T09:47:28.575Z,4.93
2017-08-26T09:49:59.292Z,5.10
2017-08-26T09:52:27.371Z,4.73
2017-08-26T09:54:56.095Z,4.43
2017-08-26T09:57:25.357Z,4.57
2017-08-26T09:59:53.824Z,5.30
2017-08-26T10:02:22.749Z,7.20
2017-08-26T10:04:52.543Z,3.77
2017-08-26T10:07:20.722Z,6.50
2017-08-26T10:09:49.843Z,4.53
2017-08-26T10:12:18.216Z,4.80
2017-08-26T10:14:48.490Z,5.13
2017-08-26T10:17:16.943Z,4.13
2017-08-26T10:19:47.194Z,5.20
2017-08-26T10:22:18.777Z,6.90
2017-08-26T10:24:47.663Z,5.83
2017-08-26T10:27:15.956Z,3.90
2017-08-26T10:29:45.069Z,4.20
2017-08-26T10:32:14.578Z,3.70
2017-08-26T10:34:43.510Z,4.30
2017-08-26T10:37:13.474Z,3.90
2017-08-26T10:39:42.944Z,4.67
2017-08-26T10:42:11.863Z,5.07
2017-08-26T10:44:40.636Z,5.07
2017-08-26T10:47:09.668Z,3.73
2017-08-26T10:49:39.276Z,4.10
2017-08-26T10:52:08.624Z,4.10
2017-08-26T10:54:37.757Z,4.20
2017-08-26T10:57:05.609Z,7.87
2017-08-26T10:59:39.181Z,4.20
2017-08-26T11:02:07.194Z,4.37
2017-08-26T11:04:36.062Z,3.20
2017-08-26T11:07:05.972Z,5.17
2017-08-26T11:09:35.526Z,3.23
2017-08-26T11:12:03.477Z,3.17
2017-08-26T11:14:31.453Z,3.80
2017-08-26T11:17:00.972Z,3.43
2017-08-26T11:19:29.208Z,5.20
2017-08-26T11:21:59.496Z,3.27
2017-08-26T11:24:28.171Z,3.37
2017-08-26T11:26:56.640Z,6.77
2017-08-26T11:29:26.161Z,3.77
2017-08-26T11:31:54.861Z,3.77
2017-08-26T11:34:25.741Z,3.87
2017-08-26T11:36:54.094Z,4.73
2017-08-26T11:39:22.797Z,3.20
2017-08-26T11:41:51.084Z,5.27
2017-08-26T11:44:19.863Z,4.57
2017-08-26T11:46:47.750Z,4.00
2017-08-26T11:49:16.736Z,4.60
2017-08-26T11:51:45.348Z,4.20
2017-08-26T11:54:16.643Z,4.17
2017-08-26T11:56:45.377Z,5.63
2017-08-26T11:59:13.798Z,5.53
2017-08-26T12:01:41.779Z,4.07
2017-08-26T12:04:11.697Z,4.70
2017-08-26T12:06:39.486Z,4.23
2017-08-26T12:09:08.158Z,4.13
2017-08-26T12:11:37.195Z,4.30
2017-08-26T12:14:06.242Z,4.03
2017-08-26T12:16:36.425Z,5.47
2017-08-26T12:19:06.296Z,7.83
2017-08-26T12:21:35.414Z,4.70
2017-08-26T12:24:05.255Z,6.13
2017-08-26T12:26:34.973Z,4.03
2017-08-26T12:29:05.072Z,4.27
2017-08-26T12:31:34.103Z,4.93
2017-08-26T12:34:02.124Z,4.17
2017-08-26T12:36:33.165Z,4.83
2017-08-26T12:39:01.345Z,4.60
2017-08-26T12:41:29.758Z,4.33
2017-08-26T12:44:00.289Z,5.03
2017-08-26T12:46:30.117Z,8.00
2017-08-26T12:48:58.165Z,4.80
2017-08-26T12:51:26.425Z,5.50
2017-08-26T12:53:55.124Z,4.10
2017-08-26T12:56:25.618Z,4.60
2017-08-26T12:58:55.049Z,4.53
2017-08-26T13:01:23.305Z,5.77
2017-08-26T13:03:51.590Z,6.13
2017-08-26T13:06:21.079Z,4.93
2017-08-26T13:08:50.053Z,4.63
2017-08-26T13:11:19.648Z,6.63
2017-08-26T13:13:48.345Z,6.23
2017-08-26T13:16:19.313Z,5.70
2017-08-26T13:21:22.281Z,7.63
2017-08-26T13:23:52.493Z,7.50
2017-08-26T13:26:22.375Z,5.37
2017-08-26T13:28:52.452Z,5.83
2017-08-26T13:31:21.368Z,5.00
2017-08-26T13:33:51.548Z,7.20
2017-08-26T13:36:20.620Z,6.50
2017-08-26T13:38:50.467Z,5.33
2017-08-26T13:41:21.293Z,7.13
2017-08-26T13:43:52.531Z,7.07
2017-08-26T13:46:21.472Z,4.77
2017-08-26T13:48:51.687Z,5.37
2017-08-26T13:51:19.733Z,5.93
2017-08-26T13:53:48.732Z,5.37
2017-08-26T13:56:17.834Z,4.80
2017-08-26T13:58:45.997Z,6.00
2017-08-26T14:01:16.960Z,5.20
2017-08-26T14:03:47.240Z,5.87
2017-08-26T14:06:17.481Z,6.57
2017-08-26T14:08:45.750Z,7.80
2017-08-26T14:11:16.078Z,14.07
2017-08-26T14:13:45.715Z,5.93
2017-08-26T14:16:14.534Z,6.90
2017-08-26T14:18:43.744Z,6.20
2017-08-26T14:21:13.573Z,8.80
2017-08-26T14:23:42.678Z,6.23
2017-08-26T14:26:11.440Z,7.23
2017-08-26T14:28:40.794Z,5.87
2017-08-26T14:31:09.020Z,9.07
2017-08-26T14:33:38.245Z,5.97
2017-08-26T14:36:07.128Z,5.77
2017-08-26T14:38:35.532Z,5.50
2017-08-26T14:41:06.256Z,5.53
2017-08-26T14:43:35.288Z,5.97
2017-08-26T14:46:03.469Z,6.33
2017-08-26T14:48:31.692Z,7.80
2017-08-26T14:51:01.159Z,6.43
2017-08-26T14:53:31.245Z,8.00
2017-08-26T14:56:00.925Z,10.40
2017-08-26T14:58:30.520Z,9.33
2017-08-26T15:00:58.697Z,11.93
2017-08-26T15:03:28.541Z,6.27
2017-08-26T15:05:58.554Z,7.77
2017-08-26T15:08:27.408Z,10.10
2017-08-26T15:10:56.596Z,7.63
2017-08-26T15:13:25.402Z,6.00
2017-08-26T15:15:54.593Z,6.20
2017-08-26T15:18:24.687Z,6.07
2017-08-26T15:20:52.931Z,8.03
2017-08-26T15:23:23.166Z,6.00
2017-08-26T15:25:52.319Z,5.83
2017-08-26T15:28:20.839Z,12.23
2017-08-26T15:30:49.675Z,7.10
2017-08-26T15:33:19.127Z,7.43
2017-08-26T15:35:46.989Z,6.20
2017-08-26T15:38:19.392Z,9.47
2017-08-26T15:40:48.268Z,9.60
2017-08-26T15:43:16.413Z,5.33
2017-08-26T15:45:46.087Z,8.30
2017-08-26T15:48:14.895Z,6.20
2017-08-26T15:50:44.024Z,10.97
2017-08-26T15:53:14.799Z,8.67
2017-08-26T15:55:45.471Z,11.03
2017-08-26T15:58:15.205Z,6.53
2017-08-26T16:00:44.291Z,10.13
2017-08-26T16:03:14.222Z,7.80
2017-08-26T16:05:43.991Z,8.83
2017-08-26T16:08:13.147Z,10.00
2017-08-26T16:10:41.077Z,10.73
2017-08-26T16:13:09.578Z,13.30
2017-08-26T16:15:38.666Z,12.00
2017-08-26T16:18:06.956Z,12.40
2017-08-26T16:20:36.662Z,10.73
2017-08-26T16:23:04.606Z,15.93
2017-08-26T16:25:35.211Z,13.90
2017-08-26T16:28:06.396Z,12.40
2017-08-26T16:30:35.354Z,10.43
2017-08-26T16:33:03.673Z,12.00
2017-08-26T16:35:35.081Z,9.40
2017-08-26T16:38:03.639Z,14.37
2017-08-26T16:40:33.724Z,13.00
2017-08-26T16:43:02.806Z,13.30
2017-08-26T16:45:31.064Z,21.93
2017-08-26T16:48:02.925Z,12.70
2017-08-26T16:50:30.955Z,11.03
2017-08-26T16:52:58.754Z,12.00
2017-08-26T16:55:27.562Z,13.17
2017-08-26T16:57:56.860Z,12.40
2017-08-26T17:00:26.833Z,11.03
2017-08-26T17:02:55.626Z,11.97
2017-08-26T17:05:24.327Z,12.20
2017-08-26T17:07:54.373Z,10.43
2017-08-26T17:10:25.119Z,18.33
2017-08-26T17:12:54.450Z,10.87
2017-08-26T17:15:23.550Z,11.57
2017-08-26T17:17:51.810Z,10.97
2017-08-26T17:20:20.872Z,13.80
2017-08-26T17:22:51.471Z,14.53
2017-08-26T17:25:20.732Z,29.20
2017-08-26T17:27:48.762Z,24.83
2017-08-26T17:30:17.308Z,28.00
2017-08-26T17:32:45.306Z,13.67
2017-08-26T17:35:15.037Z,18.70
2017-08-26T17:37:44.144Z,12.77
2017-08-26T17:40:13.396Z,15.40
2017-08-26T17:42:45.242Z,17.97
2017-08-26T17:45:14.261Z,16.33
2017-08-26T17:47:43.978Z,15.23
2017-08-26T17:50:14.663Z,14.30
2017-08-26T17:52:45.186Z,13.30
2017-08-26T17:55:15.099Z,13.90
2017-08-26T17:57:43.985Z,23.33
2017-08-26T18:00:12.565Z,16.60
2017-08-26T18:02:40.625Z,19.40
2017-08-26T18:05:08.689Z,14.47
2017-08-26T18:07:37.864Z,14.73
2017-08-26T18:10:08.583Z,18.30
2017-08-26T18:12:37.531Z,15.50
2017-08-26T18:15:07.389Z,15.57
2017-08-26T18:17:36.527Z,13.53
2017-08-26T18:20:04.817Z,15.87
2017-08-26T18:22:32.860Z,15.07
2017-08-26T18:25:01.756Z,19.50
2017-08-26T18:27:29.884Z,16.60
2017-08-26T18:29:57.796Z,14.17
2017-08-26T18:32:27.081Z,14.23
2017-08-26T18:34:55.105Z,15.90
2017-08-26T18:37:24.528Z,13.73
2017-08-26T18:39:52.583Z,14.00
2017-08-26T18:42:22.844Z,13.27
2017-08-26T18:44:52.719Z,14.60
2017-08-26T18:47:21.883Z,14.50
2017-08-26T18:49:51.054Z,14.30
2017-08-26T18:52:19.809Z,15.77
2017-08-26T18:54:49.043Z,14.07
2017-08-26T18:57:18.290Z,12.10
2017-08-26T18:59:46.175Z,15.00
2017-08-26T19:02:15.910Z,13.10
2017-08-26T19:04:46.042Z,12.53
2017-08-26T19:07:17.181Z,16.10
2017-08-26T19:09:55.149Z,12.33
2017-08-26T19:12:25.632Z,15.63
2017-08-26T19:14:54.735Z,19.03
2017-08-26T19:17:23.456Z,15.63
2017-08-26T19:19:53.770Z,13.47
2017-08-26T19:22:23.160Z,14.30
2017-08-26T19:24:52.429Z,13.80
2017-08-26T19:27:20.599Z,13.13
2017-08-26T19:29:50.554Z,13.70
2017-08-26T19:32:19.319Z,14.50
2017-08-26T19:34:49.658Z,14.53
2017-08-26T19:37:18.005Z,14.73
2017-08-26T19:39:48.340Z,13.47
2017-08-26T19:42:18.656Z,14.40
2017-08-26T19:44:48.236Z,15.10
2017-08-26T19:47:16.104Z,16.10
2017-08-26T19:49:46.532Z,14.30
2017-08-26T19:52:17.528Z,16.80
2017-08-26T19:54:46.828Z,14.80
2017-08-26T19:57:16.843Z,14.57
2017-08-26T19:59:45.522Z,14.07
2017-08-26T20:02:16.895Z,14.67
2017-08-26T20:04:46.026Z,15.77
2017-08-26T20:07:17.756Z,15.20
2017-08-26T20:09:46.205Z,15.30
2017-08-26T20:12:15.004Z,15.40
2017-08-26T20:14:45.155Z,17.70
2017-08-26T20:17:14.967Z,13.50
2017-08-26T20:19:45.073Z,17.20
2017-08-26T20:22:14.877Z,14.93
2017-08-26T20:24:45.706Z,15.00
2017-08-26T20:27:15.807Z,15.00
2017-08-26T20:29:44.943Z,14.13
2017-08-26T20:34:48.840Z,15.10
2017-08-26T20:37:18.342Z,15.70
2017-08-26T20:39:50.489Z,14.20
2017-08-26T20:42:19.033Z,17.67
2017-08-26T20:44:48.185Z,16.20
2017-08-26T20:47:16.757Z,14.10
2017-08-26T20:49:45.534Z,18.63
2017-08-26T20:52:15.574Z,18.20
2017-08-26T20:54:45.398Z,15.77
2017-08-26T20:57:15.348Z,16.77
2017-08-26T20:59:47.038Z,16.40
2017-08-26T21:02:14.965Z,15.90
2017-08-26T21:04:43.267Z,16.03
2017-08-26T21:07:12.770Z,14.63
2017-08-26T21:09:41.905Z,18.20
2017-08-26T21:12:13.315Z,15.37
2017-08-26T21:14:42.045Z,16.20
2017-08-26T21:17:10.138Z,14.90
2017-08-26T21:19:40.281Z,16.10
2017-08-26T21:22:08.610Z,14.13
2017-08-26T21:24:37.427Z,15.53
2017-08-26T21:27:05.638Z,16.40
2017-08-26T21:29:34.740Z,16.60
2017-08-26T21:32:04.671Z,16.77
2017-08-26T21:34:34.939Z,16.97
2017-08-26T21:37:02.701Z,17.70
2017-08-26T21:39:31.182Z,15.80
2017-08-26T21:42:01.958Z,15.53
2017-08-26T21:44:30.903Z,21.43
2017-08-26T21:47:01.297Z,23.10
2017-08-26T21:49:32.231Z,17.80
2017-08-26T21:52:01.941Z,17.20
2017-08-26T21:54:31.353Z,19.47
2017-08-26T21:56:59.246Z,23.00
2017-08-26T21:59:28.572Z,21.53
2017-08-26T22:01:57.010Z,16.80
2017-08-26T22:04:26.648Z,24.53
2017-08-26T22:06:55.044Z,21.00
2017-08-26T22:09:26.389Z,22.20
2017-08-26T22:11:54.416Z,23.67
2017-08-26T22:14:22.870Z,21.43
2017-08-26T22:16:51.713Z,23.83
2017-08-26T22:19:20.565Z,23.83
2017-08-26T22:21:49.422Z,31.37
2017-08-26T22:24:18.346Z,21.27
2017-08-26T22:26:46.593Z,23.53
2017-08-26T22:29:15.528Z,28.50
2017-08-26T22:31:43.572Z,28.07
2017-08-26T22:34:12.425Z,29.20
2017-08-26T22:36:44.097Z,27.23
2017-08-26T22:39:12.023Z,22.30
2017-08-26T22:41:43.637Z,26.37
2017-08-26T22:44:13.556Z,24.10
2017-08-26T22:46:41.929Z,25.50
2017-08-26T22:49:11.920Z,26.17
2017-08-26T22:51:41.319Z,27.03
2017-08-26T22:54:09.929Z,22.23
2017-08-26T22:56:38.857Z,23.70
2017-08-26T22:59:07.524Z,25.37
2017-08-26T23:01:35.767Z,22.00
2017-08-26T23:04:06.399Z,27.97
2017-08-26T23:06:34.378Z,22.67
2017-08-26T23:09:03.351Z,22.20
2017-08-26T23:11:32.986Z,26.53
2017-08-26T23:14:02.836Z,23.37
2017-08-26T23:16:32.068Z,25.40
2017-08-26T23:19:01.044Z,23.00
2017-08-26T23:21:29.917Z,22.97
2017-08-26T23:23:59.826Z,21.50
2017-08-26T23:26:28.512Z,21.97
2017-08-26T23:28:57.693Z,22.10
2017-08-26T23:31:26.960Z,23.10
2017-08-26T23:33:55.972Z,21.53
2017-08-26T23:36:25.184Z,20.80
2017-08-26T23:38:54.320Z,23.57
2017-08-26T23:41:23.491Z,23.80
2017-08-26T23:43:52.315Z,23.33
2017-08-26T23:46:21.033Z,21.77
2017-08-26T23:48:49.614Z,24.87
2017-08-26T23:51:18.679Z,23.07
2017-08-26T23:53:49.285Z,23.07
2017-08-26T23:56:18.132Z,22.00
2017-08-26T23:58:47.015Z,23.63
